createdAt,value
2022-10-22T00:00:09.610Z,99724.36
2022-10-22T00:02:56.502Z,99721.58
2022-10-22T00:05:23.492Z,99721.05
2022-10-22T00:07:50.344Z,99725.09
2022-10-22T00:10:18.505Z,99726.67
2022-10-22T00:12:45.349Z,99730.52
2022-10-22T00:15:12.452Z,99734.54
2022-10-22T00:17:39.592Z,99732.07
2022-10-22T00:20:07.427Z,99735.21
2022-10-22T00:22:34.358Z,99732.78
2022-10-22T00:25:01.218Z,99731.73
2022-10-22T00:27:28.134Z,99736.10
2022-10-22T00:29:54.989Z,99736.80
2022-10-22T00:32:21.946Z,99740.47
2022-10-22T00:34:48.804Z,99738.69
2022-10-22T00:37:15.689Z,99743.60
2022-10-22T00:39:42.642Z,99738.35
2022-10-22T00:42:22.685Z,99743.27
2022-10-22T00:45:16.227Z,99744.85
2022-10-22T00:47:55.081Z,99742.93
2022-10-22T00:50:41.497Z,99740.30
2022-10-22T00:53:15.537Z,99731.86
2022-10-22T00:55:45.227Z,99725.03
2022-10-22T00:58:13.086Z,99723.09
2022-10-22T01:00:40.322Z,99715.03
2022-10-22T01:03:07.826Z,99710.83
2022-10-22T01:05:46.035Z,99705.57
2022-10-22T01:08:36.073Z,99700.65
2022-10-22T01:11:07.717Z,99698.55
2022-10-22T01:13:34.660Z,99700.83
2022-10-22T01:16:34.883Z,99698.52
2022-10-22T01:19:38.395Z,99699.06
2022-10-22T01:22:15.588Z,99703.45
2022-10-22T01:25:17.452Z,99704.33
2022-10-22T01:28:09.870Z,99708.02
2022-10-22T01:30:39.341Z,99711.53
2022-10-22T01:33:10.323Z,99718.17
2022-10-22T01:35:41.529Z,99716.25
2022-10-22T01:38:13.694Z,99716.39
2022-10-22T01:40:42.302Z,99716.35
2022-10-22T01:43:10.978Z,99713.70
2022-10-22T01:45:51.392Z,99712.29
2022-10-22T01:48:21.162Z,99707.54
2022-10-22T01:50:55.700Z,99705.42
2022-10-22T01:56:35.942Z,99717.83
2022-10-22T01:59:21.488Z,99719.23
2022-10-22T02:01:59.224Z,99710.80
2022-10-22T02:04:33.226Z,99705.02
2022-10-22T02:07:05.048Z,99705.20
2022-10-22T02:09:33.533Z,99705.73
2022-10-22T02:12:03.262Z,99699.57
2022-10-22T02:14:30.977Z,99702.02
2022-10-22T02:16:59.805Z,99702.88
2022-10-22T02:19:29.269Z,99707.63
2022-10-22T02:21:56.385Z,99703.94
2022-10-22T02:24:23.858Z,99696.58
2022-10-22T02:27:02.892Z,99693.22
2022-10-22T02:29:41.035Z,99690.23
2022-10-22T02:32:10.998Z,99688.98
2022-10-22T02:34:38.546Z,99684.42
2022-10-22T02:37:06.521Z,99687.42
2022-10-22T02:39:35.899Z,99694.27
2022-10-22T02:42:03.128Z,99702.66
2022-10-22T02:44:30.034Z,99714.58
2022-10-22T02:46:58.224Z,99716.98
2022-10-22T02:49:25.182Z,99718.02
2022-10-22T02:51:52.151Z,99709.61
2022-10-22T02:54:18.987Z,99704.52
2022-10-22T02:56:45.832Z,99710.65
2022-10-22T02:59:12.748Z,99718.16
2022-10-22T03:01:39.928Z,99725.66
2022-10-22T03:04:06.954Z,99725.48
2022-10-22T03:06:33.990Z,99732.69
2022-10-22T03:09:01.211Z,99736.39
2022-10-22T03:11:28.119Z,99750.77
2022-10-22T03:13:55.087Z,99759.52
2022-10-22T03:16:21.893Z,99766.00
2022-10-22T03:18:48.781Z,99761.42
2022-10-22T03:21:31.214Z,99754.41
2022-10-22T03:24:01.735Z,99744.58
2022-10-22T03:26:28.894Z,99737.60
2022-10-22T03:28:55.925Z,99735.13
2022-10-22T03:31:22.842Z,99730.56
2022-10-22T03:33:49.747Z,99726.16
2022-10-22T03:36:16.897Z,99727.52
2022-10-22T03:38:43.998Z,99728.72
2022-10-22T03:41:11.118Z,99729.92
2022-10-22T03:43:40.207Z,99722.20
2022-10-22T03:46:07.455Z,99717.27
2022-10-22T03:48:34.312Z,99717.41
2022-10-22T03:51:01.882Z,99712.83
2022-10-22T03:53:28.858Z,99702.63
2022-10-22T03:55:55.704Z,99699.27
2022-10-22T03:58:22.584Z,99698.55
2022-10-22T04:00:49.685Z,99699.61
2022-10-22T04:03:16.657Z,99701.70
2022-10-22T04:05:43.886Z,99701.51
2022-10-22T04:08:10.807Z,99695.16
2022-10-22T04:10:37.624Z,99694.77
2022-10-22T04:13:04.478Z,99702.11
2022-10-22T04:15:32.072Z,99705.25
2022-10-22T04:17:58.993Z,99708.94
2022-10-22T04:20:25.985Z,99712.11
2022-10-22T04:22:52.859Z,99714.72
2022-10-22T04:25:19.722Z,99719.10
2022-10-22T04:27:46.575Z,99713.98
2022-10-22T04:30:13.645Z,99718.34
2022-10-22T04:32:40.533Z,99726.58
2022-10-22T04:35:07.737Z,99723.77
2022-10-22T04:37:34.833Z,99722.38
2022-10-22T04:40:01.734Z,99715.02
2022-10-22T04:42:28.710Z,99708.34
2022-10-22T04:44:55.613Z,99712.50
2022-10-22T04:47:22.833Z,99710.75
2022-10-22T04:49:49.710Z,99712.15
2022-10-22T04:52:16.588Z,99712.68
2022-10-22T04:54:43.437Z,99714.42
2022-10-22T04:57:10.324Z,99721.98
2022-10-22T04:59:37.283Z,99722.67
2022-10-22T05:02:04.253Z,99728.08
2022-10-22T05:04:31.576Z,99733.84
2022-10-22T05:06:58.438Z,99736.81
2022-10-22T05:09:25.362Z,99739.45
2022-10-22T05:11:52.953Z,99736.64
2022-10-22T05:14:23.218Z,99729.98
2022-10-22T05:16:51.241Z,99735.02
2022-10-22T05:19:26.942Z,99731.66
2022-10-22T05:21:57.012Z,99734.08
2022-10-22T05:24:24.598Z,99748.83
2022-10-22T05:26:53.191Z,99747.10
2022-10-22T05:29:20.739Z,99736.95
2022-10-22T05:31:47.893Z,99740.25
2022-10-22T05:34:15.104Z,99736.35
2022-10-22T05:36:42.361Z,99743.69
2022-10-22T05:39:09.527Z,99735.08
2022-10-22T05:41:36.420Z,99738.42
2022-10-22T05:44:04.110Z,99730.34
2022-10-22T05:46:34.641Z,99728.22
2022-10-22T05:49:03.789Z,99731.70
2022-10-22T05:51:33.266Z,99730.63
2022-10-22T05:54:02.014Z,99736.55
2022-10-22T05:56:31.509Z,99739.67
2022-10-22T05:58:58.881Z,99740.52
2022-10-22T06:01:29.064Z,99745.42
2022-10-22T06:03:58.220Z,99748.41
2022-10-22T06:06:29.923Z,99750.34
2022-10-22T06:09:00.977Z,99753.86
2022-10-22T06:11:31.083Z,99758.75
2022-10-22T06:14:01.356Z,99761.17
2022-10-22T06:16:29.730Z,99764.49
2022-10-22T06:19:00.559Z,99759.04
2022-10-22T06:21:28.258Z,99755.52
2022-10-22T06:23:56.791Z,99762.88
2022-10-22T06:26:26.373Z,99764.27
2022-10-22T06:28:56.578Z,99764.21
2022-10-22T06:31:28.152Z,99764.87
2022-10-22T06:34:01.200Z,99763.95
2022-10-22T06:36:28.483Z,99768.83
2022-10-22T06:38:56.067Z,99765.82
2022-10-22T06:41:27.065Z,99766.84
2022-10-22T06:43:56.955Z,99765.77
2022-10-22T06:46:24.658Z,99771.55
2022-10-22T06:48:56.556Z,99772.73
2022-10-22T06:51:24.143Z,99779.36
2022-10-22T06:53:51.132Z,99777.70
2022-10-22T06:56:20.538Z,99783.42
2022-10-22T06:58:48.532Z,99784.63
2022-10-22T07:01:17.094Z,99785.88
2022-10-22T07:03:44.036Z,99790.46
2022-10-22T07:06:13.009Z,99790.12
2022-10-22T07:08:41.259Z,99788.73
2022-10-22T07:11:13.139Z,99790.65
2022-10-22T07:13:40.359Z,99788.88
2022-10-22T07:16:08.073Z,99792.04
2022-10-22T07:18:35.875Z,99790.10
2022-10-22T07:21:04.062Z,99788.52
2022-10-22T07:23:31.951Z,99792.05
2022-10-22T07:25:58.971Z,99793.15
2022-10-22T07:28:27.417Z,99795.10
2022-10-22T07:30:54.278Z,99801.09
2022-10-22T07:33:21.355Z,99806.33
2022-10-22T07:35:48.249Z,99810.71
2022-10-22T07:38:15.168Z,99812.25
2022-10-22T07:40:42.214Z,99815.93
2022-10-22T07:43:09.207Z,99818.39
2022-10-22T07:45:36.042Z,99822.10
2022-10-22T07:48:05.938Z,99821.05
2022-10-22T07:50:33.135Z,99821.58
2022-10-22T07:53:00.148Z,99813.27
2022-10-22T07:55:29.565Z,99808.83
2022-10-22T07:57:56.574Z,99803.16
2022-10-22T08:00:25.299Z,99802.38
2022-10-22T08:02:52.758Z,99804.79
2022-10-22T08:05:19.752Z,99809.83
2022-10-22T08:07:46.767Z,99810.52
2022-10-22T08:10:13.747Z,99816.27
2022-10-22T08:12:41.598Z,99816.76
2022-10-22T08:15:09.614Z,99817.44
2022-10-22T08:17:38.778Z,99813.02
2022-10-22T08:20:06.584Z,99812.42
2022-10-22T08:22:33.614Z,99814.00
2022-10-22T08:25:00.556Z,99816.64
2022-10-22T08:27:27.484Z,99813.85
2022-10-22T08:29:54.685Z,99819.12
2022-10-22T08:32:22.144Z,99827.18
2022-10-22T08:34:49.395Z,99836.30
2022-10-22T08:37:17.303Z,99844.02
2022-10-22T08:39:44.739Z,99847.00
2022-10-22T08:42:33.814Z,99853.29
2022-10-22T08:45:17.510Z,99857.67
2022-10-22T08:48:08.741Z,99860.29
2022-10-22T08:50:40.014Z,99857.14
2022-10-22T08:53:14.262Z,99858.36
2022-10-22T08:55:42.175Z,99857.27
2022-10-22T08:58:35.503Z,99859.86
2022-10-22T09:01:10.086Z,99861.91
2022-10-22T09:03:43.462Z,99861.30
2022-10-22T09:06:23.694Z,99862.67
2022-10-22T09:08:52.478Z,99863.15
2022-10-22T09:11:32.010Z,99863.81
2022-10-22T09:14:00.265Z,99862.91
2022-10-22T09:16:50.196Z,99861.84
2022-10-22T09:19:16.864Z,99866.54
2022-10-22T09:22:11.625Z,99868.67
2022-10-22T09:24:52.280Z,99867.21
2022-10-22T09:27:23.254Z,99871.02
2022-10-22T09:29:52.159Z,99867.27
2022-10-22T09:32:19.549Z,99867.09
2022-10-22T09:34:50.000Z,99867.06
2022-10-22T09:37:20.623Z,99872.15
2022-10-22T09:39:51.944Z,99869.44
2022-10-22T09:42:20.671Z,99875.15
2022-10-22T09:44:59.575Z,99872.09
2022-10-22T09:48:00.989Z,99879.69
2022-10-22T09:50:44.650Z,99877.67
2022-10-22T09:53:41.193Z,99877.08
2022-10-22T09:56:35.276Z,99880.90
2022-10-22T09:59:03.062Z,99882.80
2022-10-22T10:01:38.082Z,99885.77
2022-10-22T10:04:10.183Z,99882.58
2022-10-22T10:06:39.966Z,99879.54
2022-10-22T10:09:17.930Z,99879.63
2022-10-22T10:12:14.781Z,99882.38
2022-10-22T10:15:02.943Z,99882.12
2022-10-22T10:17:43.265Z,99884.36
2022-10-22T10:20:16.719Z,99885.74
2022-10-22T10:23:07.810Z,99882.50
2022-10-22T10:26:02.457Z,99884.19
2022-10-22T10:28:39.106Z,99882.56
2022-10-22T10:31:33.472Z,99880.73
2022-10-22T10:34:09.526Z,99884.53
2022-10-22T10:36:58.350Z,99882.52
2022-10-22T10:39:42.845Z,99885.12
2022-10-22T10:50:10.852Z,99894.89
2022-10-22T10:52:53.623Z,99894.70
2022-10-22T10:55:37.204Z,99894.35
2022-10-22T10:58:25.488Z,99898.73
2022-10-22T11:00:58.396Z,99901.05
2022-10-22T11:03:41.316Z,99899.14
2022-10-22T11:06:20.506Z,99906.96
2022-10-22T11:09:01.427Z,99909.06
2022-10-22T11:11:41.556Z,99908.02
2022-10-22T11:14:27.898Z,99910.09
2022-10-22T11:17:08.027Z,99914.33
2022-10-22T11:19:51.515Z,99910.45
2022-10-22T11:22:28.206Z,99915.24
2022-10-22T11:25:13.927Z,99916.08
2022-10-22T11:27:47.505Z,99901.70
2022-10-22T11:30:20.450Z,99911.42
2022-10-22T11:32:54.494Z,99910.04
2022-10-22T11:35:28.193Z,99909.04
2022-10-22T11:37:57.216Z,99911.54
2022-10-22T11:40:37.123Z,99911.41
2022-10-22T11:43:09.725Z,99909.32
2022-10-22T11:45:40.038Z,99911.07
2022-10-22T11:48:10.113Z,99908.58
2022-10-22T11:50:50.247Z,99907.70
2022-10-22T11:53:33.387Z,99905.57
2022-10-22T11:56:06.631Z,99909.57
2022-10-22T11:58:43.406Z,99909.19
2022-10-22T12:01:10.589Z,99909.52
2022-10-22T12:03:42.380Z,99906.74
2022-10-22T12:06:12.778Z,99912.02
2022-10-22T12:09:03.092Z,99913.77
2022-10-22T12:11:50.305Z,99917.31
2022-10-22T12:14:29.298Z,99916.27
2022-10-22T12:17:13.490Z,99914.33
2022-10-22T12:19:41.858Z,99912.37
2022-10-22T12:22:20.618Z,99916.55
2022-10-22T12:24:55.793Z,99915.63
2022-10-22T12:27:40.992Z,99913.37
2022-10-22T12:30:24.991Z,99910.91
2022-10-22T12:32:54.237Z,99910.56
2022-10-22T12:35:25.783Z,99912.80
2022-10-22T12:37:56.548Z,99910.48
2022-10-22T12:40:47.499Z,99908.30
2022-10-22T12:43:41.520Z,99910.20
2022-10-22T12:46:13.354Z,99910.49
2022-10-22T12:48:43.543Z,99911.10
2022-10-22T12:51:19.914Z,99911.35
2022-10-22T12:53:55.293Z,99912.67
2022-10-22T12:56:32.336Z,99903.89
2022-10-22T12:59:07.565Z,99903.80
2022-10-22T13:01:41.487Z,99906.09
2022-10-22T13:04:28.005Z,99908.91
2022-10-22T13:07:15.941Z,99907.83
2022-10-22T13:09:45.556Z,99915.02
2022-10-22T13:12:17.170Z,99915.32
2022-10-22T13:14:46.215Z,99919.52
2022-10-22T13:17:26.167Z,99921.80
2022-10-22T13:19:53.851Z,99919.88
2022-10-22T13:22:25.124Z,99924.64
2022-10-22T13:24:52.439Z,99925.87
2022-10-22T13:27:23.283Z,99922.54
2022-10-22T13:29:50.556Z,99917.77
2022-10-22T13:32:48.768Z,99919.73
2022-10-22T13:35:20.488Z,99923.59
2022-10-22T13:37:47.551Z,99923.74
2022-10-22T13:40:16.375Z,99924.44
2022-10-22T13:42:43.437Z,99925.00
2022-10-22T13:45:12.641Z,99923.02
2022-10-22T13:47:40.277Z,99925.10
2022-10-22T13:50:14.574Z,99928.57
2022-10-22T13:52:44.612Z,99929.29
2022-10-22T13:55:26.709Z,99930.52
2022-10-22T13:57:57.774Z,99929.83
2022-10-22T14:00:27.126Z,99935.66
2022-10-22T14:02:58.953Z,99932.48
2022-10-22T14:05:25.986Z,99935.30
2022-10-22T14:07:53.240Z,99939.34
2022-10-22T14:10:23.164Z,99940.55
2022-10-22T14:12:53.572Z,99939.54
2022-10-22T14:15:27.345Z,99943.99
2022-10-22T14:17:59.354Z,99946.13
2022-10-22T14:20:30.160Z,99946.84
2022-10-22T14:23:02.869Z,99949.66
2022-10-22T14:25:31.037Z,99953.44
2022-10-22T14:27:57.969Z,99954.91
2022-10-22T14:30:25.810Z,99956.71
2022-10-22T14:32:52.956Z,99956.89
2022-10-22T14:35:22.140Z,99957.61
2022-10-22T14:37:49.076Z,99958.99
2022-10-22T14:40:18.958Z,99960.55
2022-10-22T14:42:47.625Z,99963.70
2022-10-22T14:45:25.391Z,99964.17
2022-10-22T14:47:56.838Z,99969.27
2022-10-22T14:50:24.588Z,99970.52
2022-10-22T14:52:52.061Z,99973.27
2022-10-22T14:55:19.703Z,99973.96
2022-10-22T14:57:46.666Z,99970.45
2022-10-22T15:00:17.017Z,99975.54
2022-10-22T15:02:44.645Z,99978.70
2022-10-22T15:05:12.104Z,99977.70
2022-10-22T15:07:39.500Z,99982.35
2022-10-22T15:10:08.446Z,99981.12
2022-10-22T15:12:36.441Z,99980.42
2022-10-22T15:15:04.052Z,99978.31
2022-10-22T15:17:30.998Z,99981.50
2022-10-22T15:20:00.606Z,99984.51
2022-10-22T15:22:28.144Z,99985.53
2022-10-22T15:24:55.056Z,99987.79
2022-10-22T15:27:22.108Z,99992.35
2022-10-22T15:29:49.030Z,99990.06
2022-10-22T15:32:15.917Z,99989.73
2022-10-22T15:34:42.765Z,99991.84
2022-10-22T15:37:13.006Z,99992.90
2022-10-22T15:39:40.980Z,99993.08
2022-10-22T15:42:09.149Z,99995.00
2022-10-22T15:44:36.442Z,99996.02
2022-10-22T15:47:04.568Z,99998.46
2022-10-22T15:49:31.872Z,99999.16
2022-10-22T15:51:58.911Z,100000.55
2022-10-22T15:54:28.736Z,100004.76
2022-10-22T15:56:57.040Z,100009.16
2022-10-22T15:59:24.740Z,100009.71
2022-10-22T16:01:51.711Z,100010.59
2022-10-22T16:04:19.149Z,100015.00
2022-10-22T16:06:48.980Z,100014.31
2022-10-22T16:09:19.781Z,100015.89
2022-10-22T16:11:47.056Z,100016.06
2022-10-22T16:14:16.281Z,100024.15
2022-10-22T16:16:45.993Z,100019.92
2022-10-22T16:19:14.718Z,100027.19
2022-10-22T16:21:41.715Z,100032.16
2022-10-22T16:24:09.217Z,100029.25
2022-10-22T16:26:36.542Z,100038.44
2022-10-22T16:29:04.824Z,100041.78
2022-10-22T16:31:31.778Z,100043.22
2022-10-22T16:33:59.250Z,100049.05
2022-10-22T16:36:26.187Z,100053.85
2022-10-22T16:38:53.271Z,100058.45
2022-10-22T16:41:22.923Z,100060.04
2022-10-22T16:43:51.275Z,100062.20
2022-10-22T16:46:20.319Z,100062.43
2022-10-22T16:48:52.340Z,100062.64
2022-10-22T16:51:25.280Z,100061.94
2022-10-22T16:54:00.179Z,100062.13
2022-10-22T16:56:39.829Z,100062.14
2022-10-22T17:03:15.074Z,100069.01
2022-10-22T17:05:42.806Z,100068.19
2022-10-22T17:08:09.717Z,100073.67
2022-10-22T17:10:37.361Z,100077.05
2022-10-22T17:13:05.146Z,100075.48
2022-10-22T17:15:32.341Z,100078.70
2022-10-22T17:18:03.559Z,100082.45
2022-10-22T17:20:30.472Z,100081.63
2022-10-22T17:22:57.409Z,100083.23
2022-10-22T17:25:35.181Z,100084.63
2022-10-22T17:28:02.229Z,100089.05
2022-10-22T17:30:29.914Z,100089.09
2022-10-22T17:32:56.884Z,100091.78
2022-10-22T17:37:54.312Z,100100.19
2022-10-22T17:40:23.517Z,100099.02
2022-10-22T17:42:52.964Z,100102.40
2022-10-22T17:45:23.537Z,100105.23
2022-10-22T17:48:14.522Z,100108.56
2022-10-22T17:50:48.279Z,100109.28
2022-10-22T17:53:24.480Z,100109.84
2022-10-22T17:56:00.171Z,100116.54
2022-10-22T17:58:30.400Z,100118.86
2022-10-22T18:00:58.498Z,100116.92
2022-10-22T18:03:27.374Z,100116.73
2022-10-22T18:05:54.769Z,100118.47
2022-10-22T18:08:23.598Z,100118.11
2022-10-22T18:10:50.533Z,100121.64
2022-10-22T18:13:18.970Z,100120.79
2022-10-22T18:15:53.580Z,100124.50
2022-10-22T18:18:20.424Z,100126.41
2022-10-22T18:20:51.726Z,100127.84
2022-10-22T18:23:19.589Z,100133.25
2022-10-22T18:25:48.749Z,100137.80
2022-10-22T18:28:17.492Z,100132.30
2022-10-22T18:30:46.850Z,100134.23
2022-10-22T18:33:15.798Z,100134.05
2022-10-22T18:35:43.034Z,100131.73
2022-10-22T18:38:10.292Z,100130.84
2022-10-22T18:40:45.147Z,100132.23
2022-10-22T18:43:12.583Z,100129.91
2022-10-22T18:45:47.814Z,100129.58
2022-10-22T18:48:20.249Z,100128.36
2022-10-22T18:50:47.219Z,100126.99
2022-10-22T18:53:15.848Z,100125.07
2022-10-22T18:55:46.432Z,100125.23
2022-10-22T18:58:13.329Z,100128.38
2022-10-22T19:00:40.475Z,100128.89
2022-10-22T19:03:10.730Z,100133.09
2022-10-22T19:05:48.071Z,100136.06
2022-10-22T19:08:16.673Z,100139.20
2022-10-22T19:10:45.111Z,100138.33
2022-10-22T19:13:17.668Z,100142.04
2022-10-22T19:15:48.941Z,100144.14
2022-10-22T19:18:19.335Z,100143.26
2022-10-22T19:20:49.127Z,100146.42
2022-10-22T19:23:19.945Z,100140.55
2022-10-22T19:25:47.874Z,100145.82
2022-10-22T19:28:15.115Z,100148.11
2022-10-22T19:30:44.530Z,100155.33
2022-10-22T19:33:12.452Z,100156.95
2022-10-22T19:35:43.129Z,100154.85
2022-10-22T19:38:12.623Z,100161.20
2022-10-22T19:40:46.287Z,100164.69
2022-10-22T19:46:39.764Z,100174.10
2022-10-22T19:49:19.064Z,100173.56
2022-10-22T19:52:07.167Z,100162.04
2022-10-22T19:54:36.875Z,100165.30
2022-10-22T19:59:36.744Z,100170.76
2022-10-22T20:02:04.825Z,100175.89
2022-10-22T20:04:31.976Z,100176.05
2022-10-22T20:06:58.956Z,100172.84
2022-10-22T20:09:25.974Z,100173.71
2022-10-22T20:11:53.149Z,100178.30
2022-10-22T20:14:20.203Z,100177.11
2022-10-22T20:16:47.230Z,100180.61
2022-10-22T20:19:15.597Z,100180.09
2022-10-22T20:21:43.889Z,100174.96
2022-10-22T20:24:11.747Z,100179.36
2022-10-22T20:26:38.699Z,100180.58
2022-10-22T20:29:05.744Z,100181.79
2022-10-22T20:31:35.487Z,100176.86
2022-10-22T20:34:02.366Z,100179.86
2022-10-22T20:36:32.015Z,100177.27
2022-10-22T20:39:15.748Z,100177.80
2022-10-22T20:41:46.450Z,100177.42
2022-10-22T20:44:17.730Z,100177.60
2022-10-22T20:46:45.436Z,100178.11
2022-10-22T20:49:17.471Z,100176.16
2022-10-22T20:51:44.384Z,100178.62
2022-10-22T20:54:11.455Z,100175.95
2022-10-22T20:56:39.775Z,100183.00
2022-10-22T20:59:10.321Z,100182.73
2022-10-22T21:01:51.603Z,100187.00
2022-10-22T21:04:21.881Z,100184.77
2022-10-22T21:06:49.957Z,100184.80
2022-10-22T21:09:16.950Z,100185.33
2022-10-22T21:11:47.166Z,100190.25
2022-10-22T21:14:19.578Z,100195.71
2022-10-22T21:16:50.845Z,100194.30
2022-10-22T21:20:47.504Z,100194.49
2022-10-22T21:33:20.378Z,100190.70
2022-10-22T21:39:13.601Z,100197.58
2022-10-22T21:41:55.095Z,100191.08
2022-10-22T21:47:13.744Z,100196.36
2022-10-22T21:49:41.421Z,100205.81
2022-10-22T21:52:11.328Z,100206.17
2022-10-22T21:54:39.411Z,100210.90
2022-10-22T21:57:06.899Z,100210.02
2022-10-22T22:06:20.417Z,100214.02
2022-10-22T22:08:50.737Z,100216.14
2022-10-22T22:11:23.688Z,100214.05
2022-10-22T22:13:51.894Z,100211.55
2022-10-22T22:16:28.415Z,100216.14
2022-10-22T22:19:08.778Z,100214.21
2022-10-22T22:21:40.923Z,100217.02
2022-10-22T22:24:12.710Z,100217.38
2022-10-22T22:26:44.633Z,100215.66
2022-10-22T22:29:19.558Z,100220.59
2022-10-22T22:31:52.919Z,100227.42
2022-10-22T22:34:23.508Z,100226.70
2022-10-22T22:36:51.080Z,100228.95
2022-10-22T22:39:23.146Z,100225.06
2022-10-22T22:41:50.600Z,100225.84
2022-10-22T22:44:17.653Z,100230.91
2022-10-22T22:46:45.025Z,100229.64
2022-10-22T22:49:13.249Z,100229.98
2022-10-22T22:51:40.294Z,100227.84
2022-10-22T22:54:10.512Z,100228.70
2022-10-22T22:56:40.491Z,100231.68
2022-10-22T22:59:11.519Z,100231.33
2022-10-22T23:01:41.206Z,100228.66
2022-10-22T23:04:12.225Z,100229.89
2022-10-22T23:06:41.854Z,100229.57
2022-10-22T23:09:14.348Z,100226.41
2022-10-22T23:11:46.000Z,100225.13
2022-10-22T23:14:18.939Z,100217.89
2022-10-22T23:16:51.963Z,100217.49
2022-10-22T23:19:22.499Z,100217.83
2022-10-22T23:21:54.352Z,100217.13
2022-10-22T23:24:28.988Z,100212.38
2022-10-22T23:27:01.876Z,100210.96
2022-10-22T23:29:35.259Z,100210.74
2022-10-22T23:32:11.429Z,100217.25
2022-10-22T23:34:41.063Z,100222.20
2022-10-22T23:37:11.964Z,100225.58
2022-10-22T23:39:43.512Z,100224.36
2022-10-22T23:42:10.432Z,100224.02
2022-10-22T23:44:42.859Z,100231.27
2022-10-22T23:47:12.335Z,100231.51
2022-10-22T23:49:41.765Z,100231.88
2022-10-22T23:52:12.689Z,100231.19
2022-10-22T23:54:45.781Z,100233.48
2022-10-22T23:57:15.567Z,100235.63
2022-10-22T23:59:44.991Z,100228.59
